Hanjin Irene — H3QD — position and weather

sailwx.info

Track history (hours):
 
Tides and Currents Weather Stations Pressure Air Temp Water Temp Dewpoint Dewpoint Depression Visibility Wind Speed Wind Dir Waves Ship Positions

Hanjin Irene

Last reported at 2017-Sep-19 20:20 UTC. Time now 2017-Sep-24 16:03 UTC.
Position N 41°07' E 030°44'.

Length 107 m; draft 2.5 m.

Type: Cargo ship. MMSI: 320228000.

Date/timePositionNaut miles runAvg speedWind from/ knotsBaromVisibWave heightAir tempDewpointWater temp
2017-Sep-19 20:20N 41°07' E 030°44'0 0.0
2017-Sep-19 19:02N 41°07' E 030°44'0 0.0
2017-Sep-19 18:44N 41°07' E 030°44'0 0.0
2017-Sep-19 18:26N 41°07' E 030°44'0 0.0
2017-Sep-19 17:50N 41°07' E 030°44'0 0.0
2017-Sep-19 17:29N 41°07' E 030°44'0 0.0
2017-Sep-18 20:56N 41°07' E 030°44'0 0.0
2017-Sep-18 19:11N 41°07' E 030°44'0 0.0
2017-Sep-18 15:44N 41°07' E 030°44'0 0.0
2017-Sep-18 15:29N 41°07' E 030°44'0 0.0
2017-Sep-18 14:59N 41°07' E 030°44'0 0.0
2017-Sep-18 14:26N 41°07' E 030°44'0 0.0
2017-Sep-18 13:56N 41°07' E 030°44'0 0.0
2017-Sep-17 23:14N 41°07' E 030°44'93 3.7
2017-Sep-16 21:43N 41°53' E 032°32'1 6.1
2017-Sep-16 21:30N 41°53' E 032°34'11 6.0
2017-Sep-16 19:43N 41°58' E 032°47'1 6.0
2017-Sep-16 19:29N 41°59' E 032°48'3 6.1
2017-Sep-16 19:00N 41°60' E 032°52'3 6.1
2017-Sep-16 18:30N 42°01' E 032°56'3 6.3
2017-Sep-16 18:00N 42°03' E 032°59'14 6.4
2017-Sep-16 15:46N 42°13' E 033°13'2 6.3
2017-Sep-16 15:30N 42°14' E 033°14'81 7.0
2017-Sep-16 03:53N 43°14' E 034°30'3 7.0
2017-Sep-16 03:28N 43°16' E 034°32'4 7.2
2017-Sep-16 02:59N 43°19' E 034°35'4 7.1
2017-Sep-16 02:28N 43°22' E 034°38'4 7.3
2017-Sep-16 01:53N 43°25' E 034°41'3 7.2
2017-Sep-16 01:30N 43°28' E 034°43'4 7.2
2017-Sep-16 01:00N 43°30' E 034°46'4 7.3
2017-Sep-16 00:30N 43°33' E 034°50'4 7.2
2017-Sep-15 23:56N 43°36' E 034°54'3 7.2
2017-Sep-15 23:30N 43°38' E 034°57'4 7.2
2017-Sep-15 23:00N 43°41' E 035°00'4 7.2
2017-Sep-15 22:30N 43°44' E 035°03'8 7.1
2017-Sep-15 21:19N 43°50' E 035°11'97 7.3
2017-Sep-15 07:55N 45°10' E 036°29'3 7.3
2017-Sep-15 07:30N 45°13' E 036°28'4 7.0
2017-Sep-15 06:59N 45°17' E 036°29'3 6.5
2017-Sep-15 06:30N 45°19' E 036°32'4 7.3
2017-Sep-15 06:00N 45°20' E 036°36'3 6.7
2017-Sep-15 05:30N 45°23' E 036°40'4 7.3
2017-Sep-15 05:00N 45°26' E 036°40'3 5.7
2017-Sep-15 04:30N 45°29' E 036°40'1 1.1
2017-Sep-15 03:49N 45°30' E 036°39'0 0.0
2017-Sep-15 03:28N 45°30' E 036°39'0 0.0
2017-Sep-15 02:59N 45°30' E 036°39'1 2.6
2017-Sep-15 02:30N 45°30' E 036°41'10 6.3
2017-Sep-15 00:56N 45°38' E 036°49'6 6.8
2017-Sep-15 00:06N 45°44' E 036°52'  
Track history (hours):
 
Tides and Currents Weather Stations Pressure Air Temp Water Temp Dewpoint Dewpoint Depression Visibility Wind Speed Wind Dir Waves Ship Positions

Hanjin Irene

Last reported at 2017-Sep-19 20:20 UTC. Time now 2017-Sep-24 16:03 UTC.
Position N 41°07' E 030°44'.

Length 107 m; draft 2.5 m.

Type: Cargo ship. MMSI: 320228000.

Date/timePositionNaut miles runAvg speedWind from/ knotsBaromVisibWave heightAir tempDewpointWater temp
2017-Sep-19 20:20N 41°07' E 030°44'0 0.0
2017-Sep-19 19:02N 41°07' E 030°44'0 0.0
2017-Sep-19 18:44N 41°07' E 030°44'0 0.0
2017-Sep-19 18:26N 41°07' E 030°44'0 0.0
2017-Sep-19 17:50N 41°07' E 030°44'0 0.0
2017-Sep-19 17:29N 41°07' E 030°44'0 0.0
2017-Sep-18 20:56N 41°07' E 030°44'0 0.0
2017-Sep-18 19:11N 41°07' E 030°44'0 0.0
2017-Sep-18 15:44N 41°07' E 030°44'0 0.0
2017-Sep-18 15:29N 41°07' E 030°44'0 0.0
2017-Sep-18 14:59N 41°07' E 030°44'0 0.0
2017-Sep-18 14:26N 41°07' E 030°44'0 0.0
2017-Sep-18 13:56N 41°07' E 030°44'0 0.0
2017-Sep-17 23:14N 41°07' E 030°44'93 3.7
2017-Sep-16 21:43N 41°53' E 032°32'1 6.1
2017-Sep-16 21:30N 41°53' E 032°34'11 6.0
2017-Sep-16 19:43N 41°58' E 032°47'1 6.0
2017-Sep-16 19:29N 41°59' E 032°48'3 6.1
2017-Sep-16 19:00N 41°60' E 032°52'3 6.1
2017-Sep-16 18:30N 42°01' E 032°56'3 6.3
2017-Sep-16 18:00N 42°03' E 032°59'14 6.4
2017-Sep-16 15:46N 42°13' E 033°13'2 6.3
2017-Sep-16 15:30N 42°14' E 033°14'81 7.0
2017-Sep-16 03:53N 43°14' E 034°30'3 7.0
2017-Sep-16 03:28N 43°16' E 034°32'4 7.2
2017-Sep-16 02:59N 43°19' E 034°35'4 7.1
2017-Sep-16 02:28N 43°22' E 034°38'4 7.3
2017-Sep-16 01:53N 43°25' E 034°41'3 7.2
2017-Sep-16 01:30N 43°28' E 034°43'4 7.2
2017-Sep-16 01:00N 43°30' E 034°46'4 7.3
2017-Sep-16 00:30N 43°33' E 034°50'4 7.2
2017-Sep-15 23:56N 43°36' E 034°54'3 7.2
2017-Sep-15 23:30N 43°38' E 034°57'4 7.2
2017-Sep-15 23:00N 43°41' E 035°00'4 7.2
2017-Sep-15 22:30N 43°44' E 035°03'8 7.1
2017-Sep-15 21:19N 43°50' E 035°11'97 7.3
2017-Sep-15 07:55N 45°10' E 036°29'3 7.3
2017-Sep-15 07:30N 45°13' E 036°28'4 7.0
2017-Sep-15 06:59N 45°17' E 036°29'3 6.5
2017-Sep-15 06:30N 45°19' E 036°32'4 7.3
2017-Sep-15 06:00N 45°20' E 036°36'3 6.7
2017-Sep-15 05:30N 45°23' E 036°40'4 7.3
2017-Sep-15 05:00N 45°26' E 036°40'3 5.7
2017-Sep-15 04:30N 45°29' E 036°40'1 1.1
2017-Sep-15 03:49N 45°30' E 036°39'0 0.0
2017-Sep-15 03:28N 45°30' E 036°39'0 0.0
2017-Sep-15 02:59N 45°30' E 036°39'1 2.6
2017-Sep-15 02:30N 45°30' E 036°41'10 6.3
2017-Sep-15 00:56N 45°38' E 036°49'6 6.8
2017-Sep-15 00:06N 45°44' E 036°52'  

Dump ship's entire track history